Time;durP1;ratioP1;P1;durP2;ratioP2;P2;SDS_P1;SDS_P2;PMS_P1;PMS_P2;Temp;Humidity;BMP_temperature;BMP_pressure;BME280_temperature;BME280_humidity;BME280_pressure;Samples;Min_cycle;Max_cycle;Signal;HPM_P1;HPM_P2
2022/05/10 00:02:03;;;;;;;10.08;5.58;;;;;;;11.84;93.49;98966.53;1676910;83;28092;-82
2022/05/10 00:04:29;;;;;;;11.90;5.35;;;;;;;11.69;93.50;98967.05;1667155;84;28193;-82
2022/05/10 00:06:56;;;;;;;10.10;5.92;;;;;;;11.69;93.77;98964.91;1664157;85;28079;-82
2022/05/10 00:09:27;;;;;;;9.95;5.40;;;;;;;11.61;93.91;98966.73;1665015;85;28157;-81
2022/05/10 00:11:52;;;;;;;11.75;5.53;;;;;;;11.68;94.28;98967.98;1666294;84;28093;-82
2022/05/10 00:14:18;;;;;;;9.25;5.00;;;;;;;11.79;94.66;98964.69;1664863;85;28020;-82
2022/05/10 00:16:45;;;;;;;13.55;5.80;;;;;;;11.82;94.90;98966.28;1665658;84;28473;-82
2022/05/10 00:19:15;;;;;;;11.53;5.45;;;;;;;11.75;94.99;98965.84;1666604;84;28102;-81
2022/05/10 00:21:44;;;;;;;10.15;5.87;;;;;;;11.80;95.24;98967.69;1665618;84;28129;-82
2022/05/10 00:24:11;;;;;;;10.15;5.75;;;;;;;11.82;95.41;98964.50;1665525;84;28169;-82
2022/05/10 00:26:37;;;;;;;9.68;5.35;;;;;;;11.72;95.45;98956.85;1665027;86;28031;-82
2022/05/10 00:29:04;;;;;;;9.83;5.67;;;;;;;11.69;95.61;98960.97;1664909;84;28091;-82
2022/05/10 00:31:31;;;;;;;12.40;6.00;;;;;;;11.57;95.65;98965.23;1666823;84;28168;-82
2022/05/10 00:33:59;;;;;;;9.65;5.35;;;;;;;11.52;95.84;98958.61;1667306;84;28059;-82
2022/05/10 00:36:26;;;;;;;10.28;5.95;;;;;;;11.56;96.09;98962.73;1664415;86;28080;-82
2022/05/10 00:38:53;;;;;;;12.10;6.03;;;;;;;11.50;96.22;98960.51;1666161;84;28151;-82
2022/05/10 00:41:38;;;;;;;8.33;5.65;;;;;;;11.36;96.22;98959.23;1666472;84;28210;-82
2022/05/10 00:44:29;;;;;;;11.28;5.50;;;;;;;11.20;96.26;98959.38;1665395;84;28138;-82
2022/05/10 00:47:03;;;;;;;10.53;5.37;;;;;;;11.05;96.37;98957.74;1663250;85;28007;-82
2022/05/10 00:49:38;;;;;;;13.00;6.00;;;;;;;10.91;96.59;98955.52;1665634;83;28212;-82
2022/05/10 00:52:17;;;;;;;10.55;6.08;;;;;;;10.76;96.81;98950.40;1665361;84;28083;-82
2022/05/10 00:54:51;;;;;;;14.50;6.25;;;;;;;10.69;97.17;98947.81;1667699;83;28004;-82
2022/05/10 00:57:33;;;;;;;10.70;5.25;;;;;;;10.69;97.67;98939.95;1666669;84;28113;-82
2022/05/10 01:00:08;;;;;;;8.90;5.35;;;;;;;10.63;98.08;98942.48;1673394;83;28131;-82
2022/05/10 01:03:03;;;;;;;9.25;5.35;;;;;;;10.58;98.52;98931.93;1678702;83;28155;-82
2022/05/10 01:05:46;;;;;;;10.00;5.42;;;;;;;10.52;98.93;98933.61;1679408;83;28092;-82
2022/05/10 01:08:37;;;;;;;8.10;4.85;;;;;;;10.44;99.39;98936.23;1686161;82;28120;-82
2022/05/10 01:11:16;;;;;;;8.28;4.67;;;;;;;10.44;99.87;98939.30;1666883;85;28138;-82
2022/05/10 01:14:06;;;;;;;8.28;5.25;;;;;;;10.42;100.00;98937.23;1680463;83;28113;-82
2022/05/10 01:16:33;;;;;;;10.85;5.10;;;;;;;10.56;100.00;98941.64;1673059;83;28096;-83
2022/05/10 01:18:59;;;;;;;14.47;5.58;;;;;;;10.62;100.00;98931.64;1654506;85;28145;-82
2022/05/10 01:21:35;;;;;;;10.70;5.20;;;;;;;10.53;100.00;98936.61;1678587;84;28023;-82
2022/05/10 01:24:21;;;;;;;8.65;5.65;;;;;;;10.46;100.00;98926.52;1678761;83;28120;-82
2022/05/10 01:26:57;;;;;;;7.70;5.03;;;;;;;10.43;100.00;98929.77;1669136;85;28518;-82
2022/05/10 01:29:36;;;;;;;9.63;4.75;;;;;;;10.46;100.00;98924.36;1683216;81;28039;-83
2022/05/10 01:34:56;;;;;;;9.13;4.95;;;;;;;10.48;100.00;98923.31;1679270;84;28077;-82
2022/05/10 01:37:26;;;;;;;4.25;3.27;;;;;;;10.39;100.00;98930.90;1669054;83;43091;-82
2022/05/10 01:39:58;;;;;;;7.60;4.53;;;;;;;10.32;100.00;98927.81;1659663;84;28082;-81
2022/05/10 01:42:47;;;;;;;11.22;5.08;;;;;;;10.33;100.00;98926.87;1676678;84;28082;-83
2022/05/10 01:45:38;;;;;;;6.85;4.30;;;;;;;10.30;100.00;98921.84;1647195;86;28078;-82
2022/05/10 01:48:07;;;;;;;9.08;4.47;;;;;;;10.26;100.00;98924.25;1650563;83;28026;-83
2022/05/10 01:50:42;;;;;;;7.65;4.00;;;;;;;10.20;100.00;98915.47;1684128;83;28105;-82
2022/05/10 01:53:21;;;;;;;6.90;4.53;;;;;;;10.14;100.00;98914.53;1669711;83;28098;-82
2022/05/10 01:55:51;;;;;;;7.75;4.10;;;;;;;10.09;100.00;98916.08;1682000;83;28123;-82
2022/05/10 01:58:21;;;;;;;6.47;4.20;;;;;;;10.15;100.00;98914.88;1678307;84;28144;-82
2022/05/10 02:00:54;;;;;;;7.53;3.62;;;;;;;10.32;100.00;98917.81;1639509;84;28083;-83
2022/05/10 02:03:42;;;;;;;6.72;4.50;;;;;;;10.27;100.00;98921.17;1669551;85;28134;-83
2022/05/10 02:06:32;;;;;;;5.83;2.67;;;;;;;10.10;100.00;98913.00;1661155;84;28166;-82
2022/05/10 02:09:05;;;;;;;7.15;4.35;;;;;;;9.98;100.00;98911.15;1660154;83;28146;-83
2022/05/10 02:11:35;;;;;;;13.05;4.83;;;;;;;9.92;100.00;98908.90;1676488;83;28073;-82
2022/05/10 02:14:24;;;;;;;5.08;3.65;;;;;;;9.86;100.00;98906.64;1671748;83;43048;-82
2022/05/10 02:16:56;;;;;;;9.18;4.03;;;;;;;9.80;100.00;98910.46;1671989;83;28072;-82
2022/05/10 02:19:29;;;;;;;6.83;3.87;;;;;;;9.66;100.00;98911.72;1629625;85;28449;-82
2022/05/10 02:22:02;;;;;;;7.35;3.98;;;;;;;9.55;100.00;98912.34;1663123;84;27999;-82
2022/05/10 02:24:34;;;;;;;7.40;3.60;;;;;;;9.49;100.00;98901.44;1629262;85;28047;-82
2022/05/10 02:27:04;;;;;;;5.60;4.15;;;;;;;9.60;100.00;98906.38;1645792;85;28130;-82
2022/05/10 02:29:43;;;;;;;5.58;3.45;;;;;;;9.77;100.00;98900.63;1651987;84;28070;-82
2022/05/10 02:35:07;;;;;;;7.72;3.80;;;;;;;9.69;100.00;98897.19;1640379;86;28201;-82
2022/05/10 02:37:34;;;;;;;5.60;3.98;;;;;;;9.63;100.00;98904.91;1669253;83;28135;-83
2022/05/10 02:40:00;;;;;;;6.37;3.40;;;;;;;9.56;100.00;98900.12;1674135;85;43090;-83
2022/05/10 02:42:27;;;;;;;6.97;3.65;;;;;;;9.59;100.00;98903.88;1669462;83;28053;-83
2022/05/10 02:44:57;;;;;;;6.65;4.17;;;;;;;9.60;100.00;98903.77;1697626;84;28067;-83
2022/05/10 02:47:38;;;;;;;6.67;3.60;;;;;;;9.74;100.00;98900.83;1670247;85;28052;-83
2022/05/10 02:50:08;;;;;;;6.08;2.80;;;;;;;9.85;100.00;98903.65;1670079;83;28202;-83
2022/05/10 02:52:43;;;;;;;7.20;3.52;;;;;;;9.93;100.00;98903.55;1667861;83;43104;-83
2022/05/10 02:55:16;;;;;;;6.08;3.80;;;;;;;9.84;100.00;98900.66;1669121;84;28226;-82
2022/05/10 02:57:44;;;;;;;5.97;3.98;;;;;;;9.85;100.00;98901.03;1635126;86;43027;-82
2022/05/10 03:00:10;;;;;;;7.90;4.17;;;;;;;9.90;100.00;98901.60;1628599;85;43088;-83
2022/05/10 03:02:40;;;;;;;6.47;3.77;;;;;;;9.93;100.00;98905.33;1640238;87;43027;-82
2022/05/10 03:05:08;;;;;;;5.85;3.52;;;;;;;9.96;100.00;98903.85;1635629;87;43030;-82
2022/05/10 03:07:34;;;;;;;7.53;4.28;;;;;;;9.96;100.00;98909.92;1649974;85;43049;-82
2022/05/10 03:10:01;;;;;;;7.42;4.55;;;;;;;9.94;100.00;98901.78;1652023;85;43057;-82
2022/05/10 03:12:27;;;;;;;7.28;3.62;;;;;;;9.91;100.00;98906.75;1650283;85;28130;-82
2022/05/10 03:14:54;;;;;;;5.87;4.25;;;;;;;9.80;100.00;98900.47;1670147;83;43023;-82
2022/05/10 03:17:20;;;;;;;7.03;4.22;;;;;;;9.61;100.00;98908.53;1677029;83;43052;-82
2022/05/10 03:19:48;;;;;;;8.50;3.92;;;;;;;9.56;100.00;98911.88;1669449;83;43051;-82
2022/05/10 03:22:14;;;;;;;6.08;3.80;;;;;;;9.63;100.00;98904.91;1672423;83;43154;-82
2022/05/10 03:24:41;;;;;;;7.28;4.95;;;;;;;9.74;100.00;98906.90;1671040;84;43132;-82
2022/05/10 03:27:09;;;;;;;4.75;3.42;;;;;;;9.84;100.00;98902.80;1671084;83;43064;-83
2022/05/10 03:29:39;;;;;;;9.10;3.92;;;;;;;9.93;100.00;98907.48;1658318;85;43024;-83
2022/05/10 03:32:07;;;;;;;9.60;4.92;;;;;;;9.81;100.00;98905.61;1655554;86;28030;-83
2022/05/10 03:37:19;;;;;;;7.87;4.10;;;;;;;9.59;100.00;98907.34;1632414;86;43050;-83
2022/05/10 03:39:45;;;;;;;5.72;3.70;;;;;;;9.49;100.00;98896.20;1637468;86;43049;-82
2022/05/10 03:42:11;;;;;;;7.58;4.28;;;;;;;9.47;100.00;98896.75;1654338;86;43103;-83
2022/05/10 03:44:38;;;;;;;7.28;3.92;;;;;;;9.57;100.00;98901.35;1640651;85;43027;-82
2022/05/10 03:47:06;;;;;;;5.33;3.15;;;;;;;9.61;100.00;98899.39;1632418;87;43050;-83
2022/05/10 03:49:32;;;;;;;4.78;3.40;;;;;;;9.57;100.00;98893.52;1665544;85;43066;-82
2022/05/10 03:51:58;;;;;;;7.55;3.87;;;;;;;9.65;100.00;98889.97;1662721;84;43063;-82
2022/05/10 03:54:25;;;;;;;5.35;3.95;;;;;;;9.79;100.00;98897.47;1654035;85;43065;-83
2022/05/10 03:56:52;;;;;;;7.67;3.72;;;;;;;9.89;100.00;98890.77;1653680;85;43057;-83
2022/05/10 03:59:19;;;;;;;5.20;3.58;;;;;;;9.91;100.00;98894.14;1668593;84;43029;-83
2022/05/10 04:01:46;;;;;;;8.35;5.33;;;;;;;9.99;100.00;98897.12;1669843;84;28108;-83
2022/05/10 04:04:13;;;;;;;7.90;3.60;;;;;;;9.98;100.00;98894.16;1669921;84;43047;-83
2022/05/10 04:06:42;;;;;;;6.83;3.60;;;;;;;10.04;100.00;98889.83;1671274;84;43052;-84
2022/05/10 04:09:10;;;;;;;6.00;4.00;;;;;;;10.17;100.00;98889.52;1668738;85;43090;-82
2022/05/10 04:11:36;;;;;;;6.70;4.05;;;;;;;10.26;100.00;98886.32;1669739;84;28118;-82
2022/05/10 04:14:03;;;;;;;9.95;3.90;;;;;;;10.39;100.00;98887.27;1670702;83;28092;-82
2022/05/10 04:16:32;;;;;;;6.15;4.05;;;;;;;10.62;100.00;98886.30;1670345;84;28142;-83
2022/05/10 04:18:58;;;;;;;10.80;4.10;;;;;;;10.90;100.00;98892.79;1668983;84;28164;-82
2022/05/10 04:21:24;;;;;;;6.80;3.92;;;;;;;11.04;100.00;98889.27;1669577;85;28031;-83
2022/05/10 04:23:53;;;;;;;8.50;3.98;;;;;;;11.21;100.00;98880.70;1669828;84;28137;-82
2022/05/10 04:26:20;;;;;;;8.68;4.47;;;;;;;11.41;100.00;98879.38;1669497;85;28117;-83
2022/05/10 04:28:46;;;;;;;7.92;4.58;;;;;;;11.57;100.00;98878.73;1671205;84;28129;-83
2022/05/10 04:31:14;;;;;;;7.92;3.62;;;;;;;11.66;100.00;98883.84;1669073;85;28130;-82
2022/05/10 04:33:44;;;;;;;6.60;3.83;;;;;;;11.64;100.00;98883.94;1649758;85;28106;-82
2022/05/10 04:36:15;;;;;;;6.35;4.50;;;;;;;11.76;100.00;98884.09;1669395;84;28086;-82
2022/05/10 04:38:39;;;;;;;8.48;5.10;;;;;;;11.87;100.00;98884.20;1667208;84;28066;-83
2022/05/10 04:44:03;;;;;;;7.85;4.83;;;;;;;11.93;100.00;98896.91;1669941;84;28122;-83
2022/05/10 04:46:31;;;;;;;9.15;5.30;;;;;;;11.98;100.00;98895.66;1669339;84;28065;-83
2022/05/10 04:48:59;;;;;;;10.03;4.95;;;;;;;12.04;100.00;98889.98;1669573;85;28192;-83
2022/05/10 04:51:28;;;;;;;8.70;5.08;;;;;;;12.08;100.00;98888.83;1668354;84;28019;-83
2022/05/10 04:53:56;;;;;;;11.33;5.75;;;;;;;12.11;100.00;98896.47;1669383;84;28106;-83
2022/05/10 04:56:26;;;;;;;9.45;5.80;;;;;;;12.13;100.00;98894.59;1654786;85;28094;-82
2022/05/10 04:58:54;;;;;;;11.65;5.33;;;;;;;12.15;100.00;98892.72;1669234;84;28090;-82
2022/05/10 05:01:25;;;;;;;7.22;4.90;;;;;;;12.20;100.00;98894.17;1675651;83;28079;-82
2022/05/10 05:03:51;;;;;;;10.40;4.95;;;;;;;12.22;100.00;98892.30;1680325;83;46478;-82
2022/05/10 05:06:18;;;;;;;7.53;4.55;;;;;;;12.13;100.00;98894.59;1663897;84;28565;-82
2022/05/10 05:08:45;;;;;;;6.47;5.03;;;;;;;12.10;100.00;98897.91;1677355;83;28083;-82
2022/05/10 05:11:13;;;;;;;5.65;3.90;;;;;;;12.18;100.00;98896.05;1680554;83;28110;-82
2022/05/10 05:13:39;;;;;;;7.08;4.15;;;;;;;12.28;100.00;98896.63;1676978;83;28145;-82
2022/05/10 05:16:06;;;;;;;8.65;4.87;;;;;;;12.40;100.00;98892.31;1677026;83;28055;-82
2022/05/10 05:18:33;;;;;;;7.72;4.83;;;;;;;12.54;100.00;98896.14;1680603;83;28174;-82
2022/05/10 05:20:59;;;;;;;7.78;4.80;;;;;;;12.68;100.00;98884.64;1682162;83;28079;-82
2022/05/10 05:23:25;;;;;;;8.40;4.50;;;;;;;12.79;100.00;98892.59;1679413;85;28040;-82
2022/05/10 05:25:55;;;;;;;10.82;5.90;;;;;;;12.84;100.00;98897.88;1678892;83;28192;-82
2022/05/10 05:28:23;;;;;;;14.07;5.40;;;;;;;12.95;100.00;98897.95;1679594;85;28083;-83
2022/05/10 05:30:50;;;;;;;9.35;5.15;;;;;;;13.01;100.00;98899.30;1679477;85;28108;-83
2022/05/10 05:33:17;;;;;;;10.68;6.00;;;;;;;13.04;100.00;98904.83;1679509;85;28110;-82
2022/05/10 05:35:44;;;;;;;12.70;5.78;;;;;;;13.02;100.00;98906.23;1679550;84;28114;-83
2022/05/10 05:38:10;;;;;;;15.20;5.90;;;;;;;12.95;100.00;98902.36;1681092;83;28173;-82
2022/05/10 05:40:38;;;;;;;10.20;4.92;;;;;;;12.97;100.00;98901.32;1667985;85;28101;-82
2022/05/10 05:43:04;;;;;;;16.35;5.95;;;;;;;13.00;100.00;98903.72;1679685;83;28122;-82
2022/05/10 05:45:31;;;;;;;10.32;5.83;;;;;;;13.10;100.00;98901.72;1677851;85;28083;-82
2022/05/10 05:47:58;;;;;;;10.10;5.58;;;;;;;13.03;100.00;98902.67;1679634;85;28031;-81
2022/05/10 05:50:25;;;;;;;10.55;5.72;;;;;;;13.03;100.00;98902.67;1668532;85;28094;-83
2022/05/10 05:52:54;;;;;;;10.10;5.90;;;;;;;13.03;100.00;98905.77;1679684;84;28156;-81
2022/05/10 05:55:21;;;;;;;15.63;6.92;;;;;;;13.06;100.00;98909.47;1665599;85;28503;-82
2022/05/10 05:57:47;;;;;;;12.58;6.70;;;;;;;13.14;100.00;98905.86;1664718;85;28192;-82
2022/05/10 06:00:23;;;;;;;13.38;6.40;;;;;;;13.21;100.00;98905.75;1667315;83;28182;-82
2022/05/10 06:02:54;;;;;;;8.50;5.67;;;;;;;13.25;100.00;98901.50;1651259;84;28130;-82
2022/05/10 06:05:23;;;;;;;11.10;7.58;;;;;;;13.26;100.00;98903.16;1651587;85;28100;-83
2022/05/10 06:07:50;;;;;;;12.63;6.42;;;;;;;13.35;100.00;98899.88;1650443;85;28151;-83
2022/05/10 06:10:16;;;;;;;10.13;5.87;;;;;;;13.43;100.00;98901.08;1661412;85;28084;-82
2022/05/10 06:12:44;;;;;;;11.43;7.05;;;;;;;13.49;100.00;98902.78;1651291;85;28460;-83
2022/05/10 06:15:13;;;;;;;10.13;5.80;;;;;;;13.43;100.00;98901.08;1617697;86;28152;-82
2022/05/10 06:17:43;;;;;;;13.60;6.78;;;;;;;13.39;100.00;98897.84;1642196;85;28169;-83
2022/05/10 06:20:12;;;;;;;13.65;7.50;;;;;;;13.34;100.00;98902.61;1650553;84;28113;-82
2022/05/10 06:22:44;;;;;;;17.17;6.30;;;;;;;13.40;100.00;98911.36;1652362;85;28075;-82
2022/05/10 06:25:11;;;;;;;12.85;6.85;;;;;;;13.38;100.00;98903.58;1649539;85;28083;-82
2022/05/10 06:27:35;;;;;;;10.35;6.20;;;;;;;13.44;100.00;98901.45;1634738;85;28201;-82
2022/05/10 06:30:02;;;;;;;8.55;5.75;;;;;;;13.51;100.00;98905.30;1641107;85;28108;-81
2022/05/10 06:32:31;;;;;;;10.28;6.35;;;;;;;13.61;100.00;98903.19;1649879;85;28126;-82
2022/05/10 06:34:59;;;;;;;10.90;5.83;;;;;;;13.70;100.00;98897.70;1642673;85;28084;-82
2022/05/10 06:40:14;;;;;;;10.95;5.58;;;;;;;13.82;100.00;98892.37;1638565;85;28166;-82
2022/05/10 06:42:42;;;;;;;9.40;5.20;;;;;;;13.97;100.00;98896.09;1641740;85;28073;-83
2022/05/10 06:45:13;;;;;;;11.55;5.30;;;;;;;13.98;100.00;98891.19;1639891;85;28078;-82
2022/05/10 06:47:41;;;;;;;11.12;5.70;;;;;;;13.94;100.00;98891.91;1651795;85;28103;-82
2022/05/10 06:50:10;;;;;;;11.60;6.05;;;;;;;13.92;100.00;98896.45;1640410;85;28155;-83
2022/05/10 06:52:37;;;;;;;7.80;5.75;;;;;;;14.02;100.00;98896.61;1642244;85;28091;-82
2022/05/10 06:55:05;;;;;;;11.43;5.60;;;;;;;14.07;100.00;98897.09;1655956;85;28078;-82
2022/05/10 06:57:31;;;;;;;13.83;6.15;;;;;;;14.04;100.00;98895.98;1652358;85;28105;-82
2022/05/10 06:59:57;;;;;;;9.23;5.10;;;;;;;14.09;100.00;98900.42;1661502;85;28126;-82
2022/05/10 07:02:28;;;;;;;11.45;5.60;;;;;;;14.18;100.00;98897.91;1654487;85;28137;-82
2022/05/10 07:04:53;;;;;;;6.83;4.65;;;;;;;14.28;100.00;98899.38;1653703;83;28485;-83
2022/05/10 07:07:19;;;;;;;10.72;5.95;;;;;;;14.39;100.00;98902.53;1658697;85;28133;-82
2022/05/10 07:09:47;;;;;;;8.73;5.30;;;;;;;14.47;100.00;98900.12;1664023;84;28001;-82
2022/05/10 07:12:13;;;;;;;9.03;5.70;;;;;;;14.51;100.00;98897.63;1663886;84;28080;-82
2022/05/10 07:14:39;;;;;;;11.45;5.05;;;;;;;14.52;100.00;98900.12;1658137;85;28157;-82
2022/05/10 07:17:06;;;;;;;8.08;5.42;;;;;;;14.56;100.00;98896.78;1658935;84;28068;-83
2022/05/10 07:19:32;;;;;;;9.13;5.45;;;;;;;14.69;100.00;98901.90;1667027;85;28060;-82
2022/05/10 07:21:58;;;;;;;9.48;5.47;;;;;;;14.81;100.00;98902.25;1656320;85;28123;-82
2022/05/10 07:24:25;;;;;;;10.03;5.25;;;;;;;14.88;100.00;98901.66;1658221;85;28091;-83
2022/05/10 07:26:52;;;;;;;9.25;4.80;;;;;;;14.96;100.00;98895.75;1659050;85;28090;-83
2022/05/10 07:29:18;;;;;;;7.65;4.83;;;;;;;15.05;100.00;98895.03;1663256;85;28004;-83
2022/05/10 07:31:44;;;;;;;9.28;5.12;;;;;;;15.12;100.00;98890.91;1663465;85;28100;-83
2022/05/10 07:34:11;;;;;;;8.13;5.12;;;;;;;15.17;100.00;98892.69;1657707;85;28085;-83
2022/05/10 07:36:38;;;;;;;9.35;5.05;;;;;;;15.20;100.00;98890.30;1661480;85;28111;-83
2022/05/10 07:39:08;;;;;;;8.73;5.20;;;;;;;15.33;100.00;98888.31;1658151;85;24618;-83
2022/05/10 07:41:36;;;;;;;7.15;4.47;;;;;;;15.46;100.00;98891.16;1662172;84;28109;-83
2022/05/10 07:44:03;;;;;;;10.65;4.92;;;;;;;15.52;100.00;98889.01;1659104;85;28138;-83
2022/05/10 07:46:29;;;;;;;9.58;5.17;;;;;;;15.60;100.00;98890.03;1668083;84;28130;-83
2022/05/10 07:48:56;;;;;;;8.53;4.45;;;;;;;15.74;100.00;98888.42;1661682;85;28007;-83
2022/05/10 07:51:23;;;;;;;9.13;4.60;;;;;;;15.81;100.00;98890.06;1663595;84;28207;-83
2022/05/10 07:53:51;;;;;;;9.10;4.47;;;;;;;15.89;100.00;98893.72;1664174;85;28533;-83
2022/05/10 07:56:18;;;;;;;9.85;4.00;;;;;;;16.01;100.00;98891.85;1660732;85;27996;-83
2022/05/10 07:58:44;;;;;;;4.60;2.87;;;;;;;16.03;100.00;98886.45;1657383;85;28064;-83
2022/05/10 08:01:11;;;;;;;3.95;3.02;;;;;;;16.05;100.00;98891.09;1658954;85;28158;-83
2022/05/10 08:03:38;;;;;;;6.42;3.02;;;;;;;16.05;100.00;98887.98;1663736;85;28075;-83
2022/05/10 08:06:05;;;;;;;4.12;2.77;;;;;;;16.16;100.00;98891.02;1661609;85;28067;-83
2022/05/10 08:08:39;;;;;;;4.87;2.95;;;;;;;16.25;100.00;98884.50;1654485;85;28124;-83
2022/05/10 08:11:08;;;;;;;5.35;2.98;;;;;;;16.36;100.00;98888.86;1658114;84;28079;-83
2022/05/10 08:13:37;;;;;;;7.67;3.92;;;;;;;16.49;100.00;98886.80;1663086;85;28067;-83
2022/05/10 08:16:04;;;;;;;5.10;3.47;;;;;;;16.60;100.00;98888.55;1661652;85;28095;-83
2022/05/10 08:18:31;;;;;;;5.87;4.03;;;;;;;16.67;100.00;98888.37;1664937;85;28182;-83
2022/05/10 08:20:59;;;;;;;6.42;4.70;;;;;;;16.75;100.00;98887.19;1656036;85;28067;-83
2022/05/10 08:23:29;;;;;;;6.97;4.85;;;;;;;16.77;100.00;98882.63;1657912;85;28194;-83
2022/05/10 08:25:57;;;;;;;6.60;4.85;;;;;;;16.78;100.00;98886.94;1659350;85;28063;-83
2022/05/10 08:28:25;;;;;;;7.90;4.83;;;;;;;16.80;100.00;98884.98;1663234;85;28500;-83
2022/05/10 08:30:52;;;;;;;9.33;4.87;;;;;;;16.85;100.00;98884.12;1658995;85;28083;-83
2022/05/10 08:33:25;;;;;;;6.75;4.00;;;;;;;16.91;100.00;98882.74;1661560;85;28083;-83
2022/05/10 08:35:53;;;;;;;7.28;3.42;;;;;;;16.99;100.00;98878.43;1657280;85;28070;-84
2022/05/10 08:38:22;;;;;;;4.67;3.02;;;;;;;17.12;100.00;98879.50;1655463;85;28087;-84
2022/05/10 08:40:55;;;;;;;4.50;3.02;;;;;;;17.21;100.00;98875.19;1674050;83;28042;-84
2022/05/10 08:43:34;;;;;;;3.72;2.65;;;;;;;17.28;100.00;98872.34;1658702;85;28103;-83
2022/05/10 08:46:03;;;;;;;5.42;3.05;;;;;;;17.32;100.00;98875.89;1655869;84;28146;-83
2022/05/10 08:48:31;;;;;;;3.90;2.72;;;;;;;17.40;100.00;98871.23;1657105;85;28044;-83
2022/05/10 08:50:58;;;;;;;5.33;2.92;;;;;;;17.46;100.00;98868.02;1663959;85;28168;-83
2022/05/10 08:53:26;;;;;;;5.40;3.20;;;;;;;17.51;100.00;98868.45;1650480;85;28106;-83
2022/05/10 08:56:03;;;;;;;5.58;3.25;;;;;;;17.58;100.00;98866.89;1655979;85;28035;-83
2022/05/10 08:58:39;;;;;;;6.12;3.10;;;;;;;17.64;100.00;98861.56;1665131;85;28008;-84
2022/05/10 09:01:09;;;;;;;5.30;3.27;;;;;;;17.68;100.00;98861.62;1656134;85;28074;-84
2022/05/10 09:03:54;;;;;;;5.45;2.67;;;;;;;17.73;100.00;98861.54;1665591;83;28146;-83
2022/05/10 09:06:30;;;;;;;4.35;2.60;;;;;;;17.85;100.00;98865.70;1665843;84;28155;-84
2022/05/10 09:09:05;;;;;;;5.05;2.58;;;;;;;17.97;99.87;98861.09;1663838;84;28038;-83
2022/05/10 09:11:35;;;;;;;4.75;2.60;;;;;;;18.09;99.33;98864.41;1653618;84;28100;-84
2022/05/10 09:14:05;;;;;;;6.22;2.62;;;;;;;18.13;98.35;98852.53;1664504;84;28089;-83
2022/05/10 09:16:31;;;;;;;;;;;;;;;18.12;96.97;98853.51;1662753;84;28070;-84
2022/05/10 09:18:57;;;;;;;;;;;;;;;18.23;96.49;98849.36;1673954;84;20350;-84
2022/05/10 09:21:27;;;;;;;;;;;;;;;18.33;95.87;98850.16;1656996;85;21889;-84
2022/05/10 09:24:04;;;;;;;;;;;;;;;18.37;94.73;98844.93;1659775;85;26000;-83
2022/05/10 09:26:35;;;;;;;;;;;;;;;18.42;93.53;98846.65;1653511;85;24491;-83
2022/05/10 09:29:07;;;;;;;4.87;2.20;;;;;;;18.52;92.96;98844.78;1660065;85;20748;-83
2022/05/10 09:37:28;;;;;;;4.05;1.82;;;;;;;18.84;88.46;98837.72;1643205;85;28466;-84
2022/05/10 09:40:20;;;;;;;5.58;2.25;;;;;;;18.84;86.40;98839.05;1654781;85;28100;-84
2022/05/10 09:42:49;;;;;;;3.60;1.92;;;;;;;18.86;84.57;98834.93;1658012;85;28178;-84
2022/05/10 09:45:26;;;;;;;3.85;2.15;;;;;;;18.87;83.06;98832.63;1654630;85;28033;-84
2022/05/10 09:47:58;;;;;;;3.40;1.92;;;;;;;18.92;82.13;98829.03;1656994;85;28118;-85
2022/05/10 09:50:39;;;;;;;4.55;2.55;;;;;;;19.03;81.75;98826.16;1652219;85;28115;-84
2022/05/10 09:53:27;;;;;;;4.08;2.33;;;;;;;19.10;80.93;98818.75;1643980;85;28065;-84
2022/05/10 09:56:10;;;;;;;11.15;7.72;;;;;;;19.21;80.46;98816.36;1659257;85;28152;-84
2022/05/10 09:58:43;;;;;;;13.20;7.85;;;;;;;19.42;80.38;98815.55;1653456;84;28083;-84
2022/05/10 10:01:16;;;;;;;5.87;2.95;;;;;;;19.62;79.72;98811.78;1656761;85;28153;-84
2022/05/10 10:03:43;;;;;;;4.22;2.40;;;;;;;19.81;78.39;98816.04;1657314;85;28101;-84
2022/05/10 10:06:19;;;;;;;28.32;17.90;;;;;;;19.96;77.28;98808.35;1664778;85;28170;-84
2022/05/10 10:08:55;;;;;;;10.43;7.28;;;;;;;20.05;76.74;98804.25;1664145;85;28071;-84
2022/05/10 10:11:25;;;;;;;8.13;4.30;;;;;;;20.08;75.76;98802.24;1662168;85;28124;-84
2022/05/10 10:13:58;;;;;;;4.83;3.12;;;;;;;20.10;74.84;98803.77;1662284;85;28059;-84
2022/05/10 10:16:51;;;;;;;3.90;2.20;;;;;;;20.05;73.63;98802.92;1666745;85;28071;-84
2022/05/10 10:19:43;;;;;;;5.22;2.02;;;;;;;19.92;72.10;98797.19;1667893;85;27996;-84
2022/05/10 10:22:13;;;;;;;4.28;2.10;;;;;;;19.90;70.91;98787.72;1663623;85;28118;-84
2022/05/10 10:25:06;;;;;;;17.48;12.55;;;;;;;19.78;69.05;98788.48;1670135;85;28161;-84
2022/05/10 10:27:42;;;;;;;5.17;3.35;;;;;;;19.82;68.81;98787.66;1664251;85;28083;-84
2022/05/10 10:30:12;;;;;;;4.08;2.10;;;;;;;19.87;67.74;98779.56;1664647;85;28000;-84
2022/05/10 10:32:45;;;;;;;2.08;1.80;;;;;;;19.81;66.04;98782.00;1667470;85;28121;-84
2022/05/10 10:35:20;;;;;;;2.92;1.62;;;;;;;19.80;65.11;98785.15;1665150;85;28122;-85
2022/05/10 10:37:54;;;;;;;3.30;2.00;;;;;;;19.79;64.15;98781.34;1664857;85;28047;-84
2022/05/10 10:40:42;;;;;;;3.42;2.17;;;;;;;19.73;62.73;98781.97;1661780;85;28103;-84
2022/05/10 10:43:12;;;;;;;9.10;5.17;;;;;;;19.70;61.53;98779.11;1663350;85;28067;-84
2022/05/10 10:45:56;;;;;;;14.25;8.50;;;;;;;19.88;61.70;98769.77;1662676;84;28114;-84
2022/05/10 10:48:47;;;;;;;31.82;18.98;;;;;;;20.10;62.04;98762.58;1664262;85;28083;-84
2022/05/10 10:51:17;;;;;;;17.23;10.60;;;;;;;20.26;62.07;98763.14;1660387;85;33841;-84
2022/05/10 10:53:55;;;;;;;4.62;2.65;;;;;;;20.39;61.56;98765.73;1669523;85;28071;-84
2022/05/10 10:56:28;;;;;;;50.33;38.98;;;;;;;20.48;61.01;98759.94;1663712;85;28076;-84
2022/05/10 10:59:22;;;;;;;23.52;20.45;;;;;;;20.54;60.29;98753.97;1663404;85;28078;-84
2022/05/10 11:01:57;;;;;;;7.75;3.87;;;;;;;20.66;60.07;98752.67;1645160;85;28031;-84
2022/05/10 11:04:30;;;;;;;5.22;3.80;;;;;;;20.70;59.18;98751.84;1663816;85;28079;-84
2022/05/10 11:06:56;;;;;;;9.60;5.92;;;;;;;20.75;58.63;98750.85;1678414;84;28070;-85
2022/05/10 11:09:44;;;;;;;3.92;2.60;;;;;;;20.80;58.00;98747.20;1643475;86;28111;-84
2022/05/10 11:12:26;;;;;;;2.50;1.85;;;;;;;20.83;57.37;98739.74;1669340;85;28139;-84
2022/05/10 11:14:55;;;;;;;4.42;1.52;;;;;;;20.68;55.88;98740.52;1677024;84;28090;-84
2022/05/10 11:17:31;;;;;;;4.33;1.80;;;;;;;20.58;55.04;98733.19;1674504;84;28088;-84
2022/05/10 11:20:19;;;;;;;6.53;2.00;;;;;;;20.42;53.64;98736.64;1624957;85;28016;-84
2022/05/10 11:22:56;;;;;;;5.15;1.85;;;;;;;20.36;52.86;98729.31;1682861;83;28098;-84
2022/05/10 11:25:42;;;;;;;4.75;1.90;;;;;;;20.40;52.64;98734.14;1675943;84;28066;-84
2022/05/10 11:28:28;;;;;;;4.58;1.90;;;;;;;20.37;51.78;98729.16;1668724;84;28090;-84
2022/05/10 11:31:20;;;;;;;4.20;1.80;;;;;;;20.49;51.72;98723.55;1659782;85;28125;-84
2022/05/10 11:34:02;;;;;;;2.75;1.82;;;;;;;20.49;50.91;98715.56;1686048;84;28112;-84
2022/05/10 11:36:41;;;;;;;;;;;;;;;20.57;50.78;98713.74;1685467;84;28080;-84
2022/05/10 11:39:28;;;;;;;3.87;2.15;;;;;;;20.80;50.86;98713.45;1678188;84;24575;-84
2022/05/10 11:42:07;;;;;;;3.02;1.87;;;;;;;21.06;51.15;98707.97;1684744;84;28468;-83
2022/05/10 11:44:40;;;;;;;4.80;1.92;;;;;;;21.29;51.40;98710.32;1645761;86;28103;-84
2022/05/10 11:47:29;;;;;;;2.40;1.55;;;;;;;21.37;51.27;98702.84;1667573;85;28058;-84
2022/05/10 11:50:06;;;;;;;11.85;6.70;;;;;;;21.53;50.95;98697.97;1648872;85;28023;-83
2022/05/10 11:53:04;;;;;;;4.33;2.00;;;;;;;21.64;50.42;98700.28;1676287;83;28167;-84
2022/05/10 11:55:36;;;;;;;5.08;2.72;;;;;;;21.67;50.11;98690.60;1640349;86;28129;-84
2022/05/10 11:58:06;;;;;;;6.25;4.10;;;;;;;21.73;49.91;98687.26;1657803;85;28102;-84
2022/05/10 12:00:37;;;;;;;3.47;1.40;;;;;;;21.76;49.53;98686.93;1657708;85;28130;-84
2022/05/10 12:03:06;;;;;;;3.92;1.90;;;;;;;21.81;49.32;98687.74;1648882;85;28266;-84
2022/05/10 12:05:36;;;;;;;2.55;1.77;;;;;;;21.82;49.06;98687.55;1643910;86;28071;-84
2022/05/10 12:08:05;;;;;;;3.17;1.75;;;;;;;21.81;48.75;98676.59;1643019;86;28109;-84
2022/05/10 12:10:44;;;;;;;2.87;1.60;;;;;;;21.85;48.53;98679.23;1655486;84;28085;-84